Bookmark and Share
Track history (hours):
 

Morejarl

Last reported at 2014-Apr-18 14:33 UTC. Time now 2014-Apr-18 18:26 UTC.
Position N 63°28' E 010°06'.

Length 35 m; draft 1.9 m.

Type: High speed craft. MMSI: 258561000.

NotesDate/timePositionNaut miles runAvg speedWind from/ knotsBaromVisibWave heightAir tempDewpointWater temp
2014-Apr-18 14:33N 63°28' E 010°06'8 8.4
2014-Apr-18 13:33N 63°26' E 010°24'8 0.3
2014-Apr-17 14:33N 63°28' E 010°07'8 8.0
2014-Apr-17 13:33N 63°26' E 010°24'17 0.8
2014-Apr-16 15:13N 63°33' E 009°50'1624.6
2014-Apr-16 14:34N 63°26' E 010°23'1 0.6
2014-Apr-16 13:34N 63°26' E 010°24'10 1.4
2014-Apr-16 06:32N 63°29' E 010°02'1010.4
2014-Apr-16 05:33N 63°26' E 010°24'1717.0
2014-Apr-16 04:33N 63°34' E 009°49'8 0.8
2014-Apr-15 19:23N 63°29' E 010°02'1011.3
2014-Apr-15 18:31N 63°26' E 010°24'0 0.0
2014-Apr-15 17:31N 63°26' E 010°24'0 0.0
2014-Apr-15 16:32N 63°26' E 010°24'0 0.0
2014-Apr-15 15:33N 63°26' E 010°24'0 0.0
2014-Apr-15 14:33N 63°26' E 010°24'0 0.0
2014-Apr-15 12:32N 63°26' E 010°24'0 0.1
2014-Apr-15 11:34N 63°26' E 010°24'1 0.9
2014-Apr-15 10:34N 63°27' E 010°25'1 0.8
2014-Apr-15 09:31N 63°26' E 010°24'0 0.0
2014-Apr-15 08:32N 63°26' E 010°24'0 0.0
2014-Apr-15 07:33N 63°26' E 010°24'0 0.0
2014-Apr-15 06:34N 63°26' E 010°24'0 0.0
2014-Apr-15 05:31N 63°26' E 010°24'0 0.0
2014-Apr-15 03:32N 63°26' E 010°24'0 0.0
2014-Apr-15 02:33N 63°26' E 010°24'0 0.0
2014-Apr-15 01:34N 63°26' E 010°24'0 0.0
2014-Apr-15 00:31N 63°26' E 010°24'0 0.0
2014-Apr-14 23:32N 63°26' E 010°24'0 0.0
2014-Apr-14 22:33N 63°26' E 010°24'0 0.0
2014-Apr-14 21:33N 63°26' E 010°24'0 0.0
2014-Apr-14 20:31N 63°26' E 010°24'0 0.0
2014-Apr-14 19:32N 63°26' E 010°24'0 0.0
2014-Apr-14 18:32N 63°26' E 010°24'0 0.0
2014-Apr-14 17:33N 63°26' E 010°24'0 0.0
2014-Apr-14 16:34N 63°26' E 010°24'0 0.0
2014-Apr-14 15:31N 63°26' E 010°24'0 0.0
2014-Apr-14 14:32N 63°26' E 010°24'0 0.0
2014-Apr-14 13:33N 63°26' E 010°24'10 1.2
2014-Apr-14 05:31N 63°29' E 010°02'10 0.9
2014-Apr-13 18:33N 63°26' E 010°24'0 0.2
2014-Apr-13 17:33N 63°26' E 010°24'0 0.0
2014-Apr-13 16:31N 63°26' E 010°24'0 0.0
2014-Apr-13 15:31N 63°26' E 010°24'0 0.0
2014-Apr-13 14:32N 63°26' E 010°24'0 0.3
2014-Apr-13 13:34N 63°26' E 010°24'17 0.7
2014-Apr-12 13:26N 63°33' E 009°50'1718.4
2014-Apr-12 12:32N 63°26' E 010°24'1 1.2
2014-Apr-12 11:33N 63°27' E 010°21'9 6.4
2014-Apr-12 10:12N 63°29' E 010°03'710.7
2014-Apr-12 09:33N 63°27' E 010°18'9 6.1
2014-Apr-12 08:07N 63°29' E 009°59'1220.9
2014-Apr-12 07:34N 63°26' E 010°24'17 1.3
2014-Apr-11 19:08N 63°33' E 009°50'1322.8
2014-Apr-11 18:33N 63°28' E 010°16'4 3.6
2014-Apr-11 17:33N 63°26' E 010°24'1818.0
2014-Apr-11 16:32N 63°36' E 009°49'9 8.1
2014-Apr-11 15:25N 63°29' E 010°02'6 2.8
2014-Apr-11 13:23N 63°30' E 009°50'1618.7
2014-Apr-11 12:33N 63°26' E 010°24'0 0.0
2014-Apr-11 11:33N 63°26' E 010°24'0 0.0
2014-Apr-11 10:31N 63°26' E 010°24'5 2.7
2014-Apr-11 08:34N 63°28' E 010°13'5 5.1
2014-Apr-11 07:32N 63°26' E 010°24'0 0.3
2014-Apr-11 06:33N 63°26' E 010°23'4 1.9
2014-Apr-11 04:33N 63°28' E 010°15'4 4.0
2014-Apr-11 03:32N 63°26' E 010°24'0 0.0
2014-Apr-11 02:32N 63°26' E 010°24'0 0.0
2014-Apr-11 01:33N 63°26' E 010°24'0 0.0
2014-Apr-11 00:31N 63°26' E 010°24'0 0.0
2014-Apr-10 23:31N 63°26' E 010°24'0 0.0
2014-Apr-10 22:32N 63°26' E 010°24'0 0.0
2014-Apr-10 21:33N 63°26' E 010°24'0 0.0
2014-Apr-10 20:33N 63°26' E 010°24'17 5.5
2014-Apr-10 17:29N 63°34' E 009°49'1718.3
2014-Apr-10 16:33N 63°26' E 010°24'0 0.0
2014-Apr-10 15:33N 63°26' E 010°24'1111.1
2014-Apr-10 14:33N 63°29' E 009°60'6 5.9
2014-Apr-10 13:30N 63°33' E 009°50'1717.7
2014-Apr-10 12:34N 63°26' E 010°24'0 0.1
2014-Apr-10 11:33N 63°26' E 010°24'0 0.0
2014-Apr-10 10:34N 63°26' E 010°24'0 0.0
2014-Apr-10 09:34N 63°26' E 010°24'0 0.0
2014-Apr-10 08:33N 63°26' E 010°24'0 0.0
2014-Apr-10 07:34N 63°26' E 010°24'0 0.0
2014-Apr-10 06:34N 63°26' E 010°24'0 0.0
2014-Apr-10 05:34N 63°26' E 010°24'0 0.0
2014-Apr-10 04:33N 63°26' E 010°24'0 0.0
2014-Apr-10 03:33N 63°26' E 010°24'0 0.0
2014-Apr-10 02:33N 63°26' E 010°24'0 0.0
2014-Apr-10 01:34N 63°26' E 010°24'0 0.0
2014-Apr-10 00:33N 63°26' E 010°24'0 0.0
2014-Apr-09 23:33N 63°26' E 010°24'0 0.0
2014-Apr-09 22:33N 63°26' E 010°24'0 0.0
2014-Apr-09 21:33N 63°26' E 010°24'0 0.0
2014-Apr-09 20:34N 63°26' E 010°24'0 0.0
2014-Apr-09 19:33N 63°26' E 010°24'0 0.0
2014-Apr-09 18:34N 63°26' E 010°24'0 0.0
2014-Apr-09 17:34N 63°26' E 010°24'0 0.0
2014-Apr-09 16:33N 63°26' E 010°24'0 0.0
2014-Apr-09 15:34N 63°26' E 010°24'0 0.0
2014-Apr-09 14:33N 63°26' E 010°24'0 0.0
2014-Apr-09 13:34N 63°26' E 010°24'0 0.0
2014-Apr-09 12:34N 63°26' E 010°24'0 0.0
2014-Apr-09 11:34N 63°26' E 010°24'0 0.0
2014-Apr-09 10:33N 63°26' E 010°24'0 0.0
2014-Apr-09 09:34N 63°26' E 010°24'0 0.0
2014-Apr-09 08:34N 63°26' E 010°24'0 0.0
2014-Apr-09 07:33N 63°26' E 010°24'0 0.0
2014-Apr-09 06:33N 63°26' E 010°24'0 0.0
2014-Apr-09 05:33N 63°26' E 010°24'0 0.0
2014-Apr-09 04:33N 63°26' E 010°24'0 0.0
2014-Apr-09 03:33N 63°26' E 010°24'0 0.0
2014-Apr-09 02:34N 63°26' E 010°24'0 0.0
2014-Apr-09 01:33N 63°26' E 010°24'0 0.0
2014-Apr-09 00:34N 63°26' E 010°24'0 0.0
2014-Apr-08 23:34N 63°26' E 010°24'0 0.0
2014-Apr-08 22:33N 63°26' E 010°24'0 0.0
2014-Apr-08 21:34N 63°26' E 010°24'0 0.0
2014-Apr-08 20:34N 63°26' E 010°24'0 0.0
2014-Apr-08 19:34N 63°26' E 010°24'0 0.0
2014-Apr-08 18:34N 63°26' E 010°24'0 0.0
2014-Apr-08 17:34N 63°26' E 010°24'0 0.0
2014-Apr-08 16:33N 63°26' E 010°24'0 0.0
2014-Apr-08 15:33N 63°26' E 010°24'  

Dump ship's entire track history

sailing weather and tide predictions

Morejarl — LLWD — position and weather